sensor_id;sensor_type;location;lat;lon;timestamp;temperature;humidity
3156;DHT22;1588;50.892;7.082;2024-01-15T00:05:10;1.50;99.90
3156;DHT22;1588;50.892;7.082;2024-01-15T00:10:12;1.40;99.90
3156;DHT22;1588;50.892;7.082;2024-01-15T00:15:15;1.40;99.90
3156;DHT22;1588;50.892;7.082;2024-01-15T00:20:18;1.30;99.90
3156;DHT22;1588;50.892;7.082;2024-01-15T00:25:21;1.30;99.90
3156;DHT22;1588;50.892;7.082;2024-01-15T00:30:24;1.20;99.90
3156;DHT22;1588;50.892;7.082;2024-01-15T00:35:29;1.20;99.90
3156;DHT22;1588;50.892;7.082;2024-01-15T00:40:31;1.20;99.90
3156;DHT22;1588;50.892;7.082;2024-01-15T00:45:34;1.10;99.90
3156;DHT22;1588;50.892;7.082;2024-01-15T00:50:38;1.00;99.90
3156;DHT22;1588;50.892;7.082;2024-01-15T00:55:44;1.00;99.90
3156;DHT22;1588;50.892;7.082;2024-01-15T01:00:46;1.00;99.90
3156;DHT22;1588;50.892;7.082;2024-01-15T01:05:50;0.90;99.90
3156;DHT22;1588;50.892;7.082;2024-01-15T01:10:53;0.90;99.90
3156;DHT22;1588;50.892;7.082;2024-01-15T01:15:55;0.90;99.90
3156;DHT22;1588;50.892;7.082;2024-01-15T01:20:59;0.90;99.90
3156;DHT22;1588;50.892;7.082;2024-01-15T01:26:01;1.00;99.90
3156;DHT22;1588;50.892;7.082;2024-01-15T01:31:04;1.00;99.90
3156;DHT22;1588;50.892;7.082;2024-01-15T01:36:11;1.00;99.90
3156;DHT22;1588;50.892;7.082;2024-01-15T01:41:13;1.00;99.90
3156;DHT22;1588;50.892;7.082;2024-01-15T01:46:16;0.90;99.90
3156;DHT22;1588;50.892;7.082;2024-01-15T01:51:22;1.00;99.90
3156;DHT22;1588;50.892;7.082;2024-01-15T01:56:26;0.90;99.90
3156;DHT22;1588;50.892;7.082;2024-01-15T02:01:32;0.90;99.90
3156;DHT22;1588;50.892;7.082;2024-01-15T02:06:36;0.90;99.90
3156;DHT22;1588;50.892;7.082;2024-01-15T02:11:39;0.90;99.90
3156;DHT22;1588;50.892;7.082;2024-01-15T02:16:42;1.00;99.90
3156;DHT22;1588;50.892;7.082;2024-01-15T02:21:46;1.00;99.90
3156;DHT22;1588;50.892;7.082;2024-01-15T02:26:50;1.10;99.90
3156;DHT22;1588;50.892;7.082;2024-01-15T02:31:52;1.10;99.90
3156;DHT22;1588;50.892;7.082;2024-01-15T02:36:54;1.10;99.90
3156;DHT22;1588;50.892;7.082;2024-01-15T02:41:58;1.20;99.90
3156;DHT22;1588;50.892;7.082;2024-01-15T02:47:00;1.20;99.90
3156;DHT22;1588;50.892;7.082;2024-01-15T02:52:03;1.20;99.90
3156;DHT22;1588;50.892;7.082;2024-01-15T02:57:06;1.20;99.90
3156;DHT22;1588;50.892;7.082;2024-01-15T03:02:09;1.20;99.90
3156;DHT22;1588;50.892;7.082;2024-01-15T03:07:12;1.20;99.90
3156;DHT22;1588;50.892;7.082;2024-01-15T03:12:16;1.20;99.90
3156;DHT22;1588;50.892;7.082;2024-01-15T03:17:19;1.20;99.90
3156;DHT22;1588;50.892;7.082;2024-01-15T03:22:21;1.20;99.90
3156;DHT22;1588;50.892;7.082;2024-01-15T03:27:25;1.20;99.90
3156;DHT22;1588;50.892;7.082;2024-01-15T03:32:27;1.20;99.90
3156;DHT22;1588;50.892;7.082;2024-01-15T03:37:30;1.20;99.90
3156;DHT22;1588;50.892;7.082;2024-01-15T03:42:34;1.20;99.90
3156;DHT22;1588;50.892;7.082;2024-01-15T03:47:36;1.20;99.90
3156;DHT22;1588;50.892;7.082;2024-01-15T03:52:42;1.20;99.90
3156;DHT22;1588;50.892;7.082;2024-01-15T03:57:46;1.20;99.90
3156;DHT22;1588;50.892;7.082;2024-01-15T04:02:48;1.20;99.90
3156;DHT22;1588;50.892;7.082;2024-01-15T04:07:50;1.20;99.90
3156;DHT22;1588;50.892;7.082;2024-01-15T04:12:54;1.20;99.90
3156;DHT22;1588;50.892;7.082;2024-01-15T04:17:57;1.30;99.90
3156;DHT22;1588;50.892;7.082;2024-01-15T04:22:59;1.30;99.90
3156;DHT22;1588;50.892;7.082;2024-01-15T04:28:03;1.30;99.90
3156;DHT22;1588;50.892;7.082;2024-01-15T04:33:05;1.20;99.90
3156;DHT22;1588;50.892;7.082;2024-01-15T04:38:07;1.20;99.90
3156;DHT22;1588;50.892;7.082;2024-01-15T04:43:11;1.20;99.90
3156;DHT22;1588;50.892;7.082;2024-01-15T04:48:13;1.20;99.90
3156;DHT22;1588;50.892;7.082;2024-01-15T04:53:16;1.20;99.90
3156;DHT22;1588;50.892;7.082;2024-01-15T04:58:20;1.30;99.90
3156;DHT22;1588;50.892;7.082;2024-01-15T05:03:26;1.30;99.90
3156;DHT22;1588;50.892;7.082;2024-01-15T05:08:28;1.30;99.90
3156;DHT22;1588;50.892;7.082;2024-01-15T05:13:32;1.40;99.90
3156;DHT22;1588;50.892;7.082;2024-01-15T05:18:34;1.40;99.90
3156;DHT22;1588;50.892;7.082;2024-01-15T05:23:40;1.40;99.90
3156;DHT22;1588;50.892;7.082;2024-01-15T05:28:43;1.40;99.90
3156;DHT22;1588;50.892;7.082;2024-01-15T05:33:46;1.50;99.90
3156;DHT22;1588;50.892;7.082;2024-01-15T05:38:48;1.50;99.90
3156;DHT22;1588;50.892;7.082;2024-01-15T05:43:52;1.50;99.90
3156;DHT22;1588;50.892;7.082;2024-01-15T05:48:54;1.60;99.90
3156;DHT22;1588;50.892;7.082;2024-01-15T05:53:57;1.60;99.90
3156;DHT22;1588;50.892;7.082;2024-01-15T05:59:01;1.60;99.90
3156;DHT22;1588;50.892;7.082;2024-01-15T06:04:03;1.60;99.90
3156;DHT22;1588;50.892;7.082;2024-01-15T06:09:06;1.60;99.90
3156;DHT22;1588;50.892;7.082;2024-01-15T06:14:10;1.60;99.90
3156;DHT22;1588;50.892;7.082;2024-01-15T06:19:12;1.60;99.90
3156;DHT22;1588;50.892;7.082;2024-01-15T06:24:15;1.60;99.90
3156;DHT22;1588;50.892;7.082;2024-01-15T06:29:20;1.60;99.90
3156;DHT22;1588;50.892;7.082;2024-01-15T06:34:36;1.70;99.90
3156;DHT22;1588;50.892;7.082;2024-01-15T06:39:38;1.70;99.90
3156;DHT22;1588;50.892;7.082;2024-01-15T06:44:42;1.70;99.90
3156;DHT22;1588;50.892;7.082;2024-01-15T06:49:45;1.70;99.90
3156;DHT22;1588;50.892;7.082;2024-01-15T06:54:47;1.70;99.90
3156;DHT22;1588;50.892;7.082;2024-01-15T06:59:51;1.70;99.90
3156;DHT22;1588;50.892;7.082;2024-01-15T07:04:54;1.70;99.90
3156;DHT22;1588;50.892;7.082;2024-01-15T07:09:56;1.60;99.90
3156;DHT22;1588;50.892;7.082;2024-01-15T07:15:00;1.70;99.90
3156;DHT22;1588;50.892;7.082;2024-01-15T07:20:03;1.70;99.90
3156;DHT22;1588;50.892;7.082;2024-01-15T07:25:08;1.70;99.90
3156;DHT22;1588;50.892;7.082;2024-01-15T07:30:13;1.70;99.90
3156;DHT22;1588;50.892;7.082;2024-01-15T07:35:16;1.70;99.90
3156;DHT22;1588;50.892;7.082;2024-01-15T07:40:18;1.70;99.90
3156;DHT22;1588;50.892;7.082;2024-01-15T07:45:22;1.70;99.90
3156;DHT22;1588;50.892;7.082;2024-01-15T07:50:45;1.70;99.90
3156;DHT22;1588;50.892;7.082;2024-01-15T07:55:48;1.80;99.90
3156;DHT22;1588;50.892;7.082;2024-01-15T08:00:52;1.80;99.90
3156;DHT22;1588;50.892;7.082;2024-01-15T08:05:54;1.80;99.90
3156;DHT22;1588;50.892;7.082;2024-01-15T08:10:59;1.80;99.90
3156;DHT22;1588;50.892;7.082;2024-01-15T08:16:04;1.80;99.90
3156;DHT22;1588;50.892;7.082;2024-01-15T08:21:07;1.80;99.90
3156;DHT22;1588;50.892;7.082;2024-01-15T08:26:11;1.80;99.90
3156;DHT22;1588;50.892;7.082;2024-01-15T08:31:15;1.90;99.90
3156;DHT22;1588;50.892;7.082;2024-01-15T08:36:18;2.00;99.90
3156;DHT22;1588;50.892;7.082;2024-01-15T08:41:20;2.00;99.90
3156;DHT22;1588;50.892;7.082;2024-01-15T08:46:31;2.00;99.90
3156;DHT22;1588;50.892;7.082;2024-01-15T08:51:33;2.10;99.90
3156;DHT22;1588;50.892;7.082;2024-01-15T08:56:36;2.10;99.90
3156;DHT22;1588;50.892;7.082;2024-01-15T09:01:40;2.10;99.90
3156;DHT22;1588;50.892;7.082;2024-01-15T09:06:44;2.10;99.90
3156;DHT22;1588;50.892;7.082;2024-01-15T09:29:45;2.10;99.90
3156;DHT22;1588;50.892;7.082;2024-01-15T09:34:48;2.10;99.90
3156;DHT22;1588;50.892;7.082;2024-01-15T09:40:07;2.10;99.90
3156;DHT22;1588;50.892;7.082;2024-01-15T09:45:20;2.10;99.90
3156;DHT22;1588;50.892;7.082;2024-01-15T09:50:37;2.00;99.90
3156;DHT22;1588;50.892;7.082;2024-01-15T09:56:00;1.80;99.90
3156;DHT22;1588;50.892;7.082;2024-01-15T10:01:04;1.70;99.90
3156;DHT22;1588;50.892;7.082;2024-01-15T10:06:09;1.70;99.90
3156;DHT22;1588;50.892;7.082;2024-01-15T10:11:13;1.60;99.90
3156;DHT22;1588;50.892;7.082;2024-01-15T10:16:22;1.40;99.90
3156;DHT22;1588;50.892;7.082;2024-01-15T10:21:32;1.40;99.90
3156;DHT22;1588;50.892;7.082;2024-01-15T10:26:51;1.40;99.90
3156;DHT22;1588;50.892;7.082;2024-01-15T10:31:55;1.50;99.90
3156;DHT22;1588;50.892;7.082;2024-01-15T10:36:57;1.60;99.90
3156;DHT22;1588;50.892;7.082;2024-01-15T10:42:00;1.50;99.90
3156;DHT22;1588;50.892;7.082;2024-01-15T10:47:04;1.50;99.90
3156;DHT22;1588;50.892;7.082;2024-01-15T10:52:07;1.50;99.90
3156;DHT22;1588;50.892;7.082;2024-01-15T10:57:09;1.60;99.90
3156;DHT22;1588;50.892;7.082;2024-01-15T11:02:14;1.60;99.90
3156;DHT22;1588;50.892;7.082;2024-01-15T11:07:17;1.50;99.90
3156;DHT22;1588;50.892;7.082;2024-01-15T11:12:23;1.30;99.90
3156;DHT22;1588;50.892;7.082;2024-01-15T11:18:00;1.30;99.90
3156;DHT22;1588;50.892;7.082;2024-01-15T11:23:04;1.30;99.90
3156;DHT22;1588;50.892;7.082;2024-01-15T11:28:06;1.40;99.90
3156;DHT22;1588;50.892;7.082;2024-01-15T11:33:32;1.40;99.90
3156;DHT22;1588;50.892;7.082;2024-01-15T11:38:36;1.50;99.90
3156;DHT22;1588;50.892;7.082;2024-01-15T11:44:10;1.50;99.90
3156;DHT22;1588;50.892;7.082;2024-01-15T11:49:26;1.60;99.90
3156;DHT22;1588;50.892;7.082;2024-01-15T11:54:34;1.70;99.90
3156;DHT22;1588;50.892;7.082;2024-01-15T11:59:40;1.70;99.90
3156;DHT22;1588;50.892;7.082;2024-01-15T12:04:45;1.70;99.90
3156;DHT22;1588;50.892;7.082;2024-01-15T12:09:52;1.80;99.90
3156;DHT22;1588;50.892;7.082;2024-01-15T12:15:04;1.80;99.90
3156;DHT22;1588;50.892;7.082;2024-01-15T12:20:12;1.80;99.90
3156;DHT22;1588;50.892;7.082;2024-01-15T12:25:14;1.80;99.90
3156;DHT22;1588;50.892;7.082;2024-01-15T12:30:17;1.80;99.90
3156;DHT22;1588;50.892;7.082;2024-01-15T12:35:21;1.80;99.90
3156;DHT22;1588;50.892;7.082;2024-01-15T12:40:27;2.00;99.90
3156;DHT22;1588;50.892;7.082;2024-01-15T12:45:31;2.40;99.90
3156;DHT22;1588;50.892;7.082;2024-01-15T12:50:36;2.60;99.90
3156;DHT22;1588;50.892;7.082;2024-01-15T12:55:39;2.50;99.90
3156;DHT22;1588;50.892;7.082;2024-01-15T13:00:41;2.50;99.90
3156;DHT22;1588;50.892;7.082;2024-01-15T13:05:45;2.40;99.90
3156;DHT22;1588;50.892;7.082;2024-01-15T13:10:48;2.40;99.90
3156;DHT22;1588;50.892;7.082;2024-01-15T13:15:50;2.50;99.90
3156;DHT22;1588;50.892;7.082;2024-01-15T13:20:55;2.50;99.90
3156;DHT22;1588;50.892;7.082;2024-01-15T13:26:00;2.60;99.90
3156;DHT22;1588;50.892;7.082;2024-01-15T13:31:02;2.50;99.90
3156;DHT22;1588;50.892;7.082;2024-01-15T13:36:07;2.50;99.90
3156;DHT22;1588;50.892;7.082;2024-01-15T13:41:11;2.40;99.90
3156;DHT22;1588;50.892;7.082;2024-01-15T13:46:13;2.50;99.90
3156;DHT22;1588;50.892;7.082;2024-01-15T13:51:17;2.40;99.90
3156;DHT22;1588;50.892;7.082;2024-01-15T13:56:19;2.40;99.90
3156;DHT22;1588;50.892;7.082;2024-01-15T14:01:22;2.40;99.90
3156;DHT22;1588;50.892;7.082;2024-01-15T14:06:25;2.40;99.90
3156;DHT22;1588;50.892;7.082;2024-01-15T14:11:29;2.50;99.90
3156;DHT22;1588;50.892;7.082;2024-01-15T14:16:32;2.50;99.90
3156;DHT22;1588;50.892;7.082;2024-01-15T14:21:38;2.40;99.90
3156;DHT22;1588;50.892;7.082;2024-01-15T14:26:41;2.30;99.90
3156;DHT22;1588;50.892;7.082;2024-01-15T14:31:52;2.20;99.90
3156;DHT22;1588;50.892;7.082;2024-01-15T14:37:05;2.20;99.90
3156;DHT22;1588;50.892;7.082;2024-01-15T14:42:08;2.20;99.90
3156;DHT22;1588;50.892;7.082;2024-01-15T14:47:18;2.10;99.90
3156;DHT22;1588;50.892;7.082;2024-01-15T14:52:26;2.10;99.90
3156;DHT22;1588;50.892;7.082;2024-01-15T14:57:29;2.20;99.90
3156;DHT22;1588;50.892;7.082;2024-01-15T15:02:31;2.20;99.90
3156;DHT22;1588;50.892;7.082;2024-01-15T15:07:36;2.20;99.90
3156;DHT22;1588;50.892;7.082;2024-01-15T15:12:39;2.10;99.90
3156;DHT22;1588;50.892;7.082;2024-01-15T15:17:41;2.10;99.90
3156;DHT22;1588;50.892;7.082;2024-01-15T15:22:45;2.00;99.90
3156;DHT22;1588;50.892;7.082;2024-01-15T15:27:47;1.90;99.90
3156;DHT22;1588;50.892;7.082;2024-01-15T15:32:50;1.90;99.90
3156;DHT22;1588;50.892;7.082;2024-01-15T15:37:54;1.90;99.90
3156;DHT22;1588;50.892;7.082;2024-01-15T15:42:56;1.90;99.90
3156;DHT22;1588;50.892;7.082;2024-01-15T15:47:58;1.90;99.90
3156;DHT22;1588;50.892;7.082;2024-01-15T15:53:05;1.90;99.90
3156;DHT22;1588;50.892;7.082;2024-01-15T15:58:07;1.90;99.90
3156;DHT22;1588;50.892;7.082;2024-01-15T16:03:10;1.80;99.90
3156;DHT22;1588;50.892;7.082;2024-01-15T16:08:14;1.70;99.90
3156;DHT22;1588;50.892;7.082;2024-01-15T16:13:16;1.60;99.90
3156;DHT22;1588;50.892;7.082;2024-01-15T16:18:18;1.60;99.90
3156;DHT22;1588;50.892;7.082;2024-01-15T16:23:22;1.60;99.90
3156;DHT22;1588;50.892;7.082;2024-01-15T16:28:24;1.50;99.90
3156;DHT22;1588;50.892;7.082;2024-01-15T16:33:27;1.60;99.90
3156;DHT22;1588;50.892;7.082;2024-01-15T16:38:30;1.50;99.90
3156;DHT22;1588;50.892;7.082;2024-01-15T16:43:33;1.50;99.90
3156;DHT22;1588;50.892;7.082;2024-01-15T16:48:35;1.50;99.90
3156;DHT22;1588;50.892;7.082;2024-01-15T16:53:39;1.50;99.90
3156;DHT22;1588;50.892;7.082;2024-01-15T16:58:42;1.50;99.90
3156;DHT22;1588;50.892;7.082;2024-01-15T17:03:44;1.50;99.90
3156;DHT22;1588;50.892;7.082;2024-01-15T17:08:47;1.40;99.90
3156;DHT22;1588;50.892;7.082;2024-01-15T17:13:50;1.50;99.90
3156;DHT22;1588;50.892;7.082;2024-01-15T17:18:53;1.40;99.90
3156;DHT22;1588;50.892;7.082;2024-01-15T17:23:56;1.30;99.90
3156;DHT22;1588;50.892;7.082;2024-01-15T17:28:59;1.30;99.90
3156;DHT22;1588;50.892;7.082;2024-01-15T17:34:01;1.30;99.90
3156;DHT22;1588;50.892;7.082;2024-01-15T17:39:07;1.30;99.90
3156;DHT22;1588;50.892;7.082;2024-01-15T17:44:12;1.40;99.90
3156;DHT22;1588;50.892;7.082;2024-01-15T17:49:14;1.30;99.90
3156;DHT22;1588;50.892;7.082;2024-01-15T17:54:18;1.40;99.90
3156;DHT22;1588;50.892;7.082;2024-01-15T17:59:20;1.30;99.90
3156;DHT22;1588;50.892;7.082;2024-01-15T18:04:22;1.20;99.90
3156;DHT22;1588;50.892;7.082;2024-01-15T18:09:26;1.20;99.90
3156;DHT22;1588;50.892;7.082;2024-01-15T18:14:28;1.20;99.90
3156;DHT22;1588;50.892;7.082;2024-01-15T18:19:41;1.30;99.90
3156;DHT22;1588;50.892;7.082;2024-01-15T18:24:45;1.30;99.90
3156;DHT22;1588;50.892;7.082;2024-01-15T18:29:47;1.40;99.90
3156;DHT22;1588;50.892;7.082;2024-01-15T18:34:50;1.40;99.90
3156;DHT22;1588;50.892;7.082;2024-01-15T18:39:53;1.40;99.90
3156;DHT22;1588;50.892;7.082;2024-01-15T18:44:56;1.40;99.90
3156;DHT22;1588;50.892;7.082;2024-01-15T18:49:58;1.50;99.90
3156;DHT22;1588;50.892;7.082;2024-01-15T18:55:02;1.40;99.90
3156;DHT22;1588;50.892;7.082;2024-01-15T19:00:06;1.40;99.90
3156;DHT22;1588;50.892;7.082;2024-01-15T19:05:11;1.50;99.90
3156;DHT22;1588;50.892;7.082;2024-01-15T19:10:15;1.50;99.90
3156;DHT22;1588;50.892;7.082;2024-01-15T19:15:27;1.50;99.90
3156;DHT22;1588;50.892;7.082;2024-01-15T19:20:30;1.50;99.90
3156;DHT22;1588;50.892;7.082;2024-01-15T19:25:34;1.40;99.90
3156;DHT22;1588;50.892;7.082;2024-01-15T19:30:36;1.30;99.90
3156;DHT22;1588;50.892;7.082;2024-01-15T19:35:39;1.30;99.90
3156;DHT22;1588;50.892;7.082;2024-01-15T19:40:42;1.20;99.90
3156;DHT22;1588;50.892;7.082;2024-01-15T19:45:45;1.20;99.90
3156;DHT22;1588;50.892;7.082;2024-01-15T19:50:48;1.20;99.90
3156;DHT22;1588;50.892;7.082;2024-01-15T19:55:51;1.30;99.90
3156;DHT22;1588;50.892;7.082;2024-01-15T20:00:53;1.30;99.90
3156;DHT22;1588;50.892;7.082;2024-01-15T20:05:56;1.30;99.90
3156;DHT22;1588;50.892;7.082;2024-01-15T20:10:59;1.30;99.90
3156;DHT22;1588;50.892;7.082;2024-01-15T20:16:05;1.30;99.90
3156;DHT22;1588;50.892;7.082;2024-01-15T20:21:13;1.30;99.90
3156;DHT22;1588;50.892;7.082;2024-01-15T20:26:17;1.40;99.90
3156;DHT22;1588;50.892;7.082;2024-01-15T20:31:19;1.40;99.90
3156;DHT22;1588;50.892;7.082;2024-01-15T20:36:22;1.40;99.90
3156;DHT22;1588;50.892;7.082;2024-01-15T20:41:30;1.40;99.90
3156;DHT22;1588;50.892;7.082;2024-01-15T20:46:48;1.30;99.90
3156;DHT22;1588;50.892;7.082;2024-01-15T20:51:55;1.40;99.90
3156;DHT22;1588;50.892;7.082;2024-01-15T20:57:00;1.40;99.90
3156;DHT22;1588;50.892;7.082;2024-01-15T21:02:05;1.40;99.90
3156;DHT22;1588;50.892;7.082;2024-01-15T21:07:07;1.30;99.90
3156;DHT22;1588;50.892;7.082;2024-01-15T21:12:11;1.30;99.90
3156;DHT22;1588;50.892;7.082;2024-01-15T21:17:13;1.30;99.90
3156;DHT22;1588;50.892;7.082;2024-01-15T21:22:16;1.30;99.90
3156;DHT22;1588;50.892;7.082;2024-01-15T21:27:20;1.20;99.90
3156;DHT22;1588;50.892;7.082;2024-01-15T21:32:22;1.20;99.90
3156;DHT22;1588;50.892;7.082;2024-01-15T21:37:24;1.30;99.90
3156;DHT22;1588;50.892;7.082;2024-01-15T21:42:34;1.30;99.90
3156;DHT22;1588;50.892;7.082;2024-01-15T21:47:52;1.40;99.90
3156;DHT22;1588;50.892;7.082;2024-01-15T21:52:54;1.40;99.90
3156;DHT22;1588;50.892;7.082;2024-01-15T21:57:58;1.40;99.90
3156;DHT22;1588;50.892;7.082;2024-01-15T22:03:01;1.40;99.90
3156;DHT22;1588;50.892;7.082;2024-01-15T22:08:04;1.40;99.90
3156;DHT22;1588;50.892;7.082;2024-01-15T22:13:08;1.40;99.90
3156;DHT22;1588;50.892;7.082;2024-01-15T22:18:11;1.40;99.90
3156;DHT22;1588;50.892;7.082;2024-01-15T22:23:18;1.50;99.90
3156;DHT22;1588;50.892;7.082;2024-01-15T22:28:22;1.50;99.90
3156;DHT22;1588;50.892;7.082;2024-01-15T22:33:25;1.50;99.90
3156;DHT22;1588;50.892;7.082;2024-01-15T22:38:27;1.50;99.90
3156;DHT22;1588;50.892;7.082;2024-01-15T22:43:31;1.40;99.90
3156;DHT22;1588;50.892;7.082;2024-01-15T22:48:34;1.40;99.90
3156;DHT22;1588;50.892;7.082;2024-01-15T22:53:37;1.50;99.90
3156;DHT22;1588;50.892;7.082;2024-01-15T22:58:41;1.50;99.90
3156;DHT22;1588;50.892;7.082;2024-01-15T23:03:44;1.50;99.90
3156;DHT22;1588;50.892;7.082;2024-01-15T23:08:47;1.50;99.90
3156;DHT22;1588;50.892;7.082;2024-01-15T23:14:22;1.50;99.90
3156;DHT22;1588;50.892;7.082;2024-01-15T23:19:25;1.60;99.90
3156;DHT22;1588;50.892;7.082;2024-01-15T23:24:27;1.60;99.90
3156;DHT22;1588;50.892;7.082;2024-01-15T23:29:31;1.60;99.90
3156;DHT22;1588;50.892;7.082;2024-01-15T23:34:34;1.60;99.90
3156;DHT22;1588;50.892;7.082;2024-01-15T23:39:36;1.60;99.90
3156;DHT22;1588;50.892;7.082;2024-01-15T23:44:41;1.60;99.90
3156;DHT22;1588;50.892;7.082;2024-01-15T23:49:43;1.60;99.90
3156;DHT22;1588;50.892;7.082;2024-01-15T23:54:46;1.50;99.90
3156;DHT22;1588;50.892;7.082;2024-01-15T23:59:49;1.60;99.90
